Time;durP1;ratioP1;P1;durP2;ratioP2;P2;SDS_P1;SDS_P2;PMS_P1;PMS_P2;Temp;Humidity;BMP_temperature;BMP_pressure;BME280_temperature;BME280_humidity;BME280_pressure;Samples;Min_cycle;Max_cycle;Signal;HPM_P1;HPM_P2
2022/08/25 00:01:30;;;;;;;4.40;3.30;;;;;;;22.57;80.02;101616.91;5073565;28;20075;-35
2022/08/25 00:03:56;;;;;;;4.57;3.10;;;;;;;22.52;80.69;101623.28;5073218;28;20459;-35
2022/08/25 00:06:22;;;;;;;4.45;3.40;;;;;;;22.43;80.52;101615.94;5072741;28;20044;-35
2022/08/25 00:08:48;;;;;;;4.43;3.13;;;;;;;22.42;80.97;101619.81;5072935;28;20033;-35
2022/08/25 00:11:19;;;;;;;5.13;3.78;;;;;;;22.42;80.89;101617.06;5072961;28;20082;-35
2022/08/25 00:13:48;;;;;;;6.93;3.30;;;;;;;22.40;81.13;101616.53;5072849;28;20029;-35
2022/08/25 00:16:15;;;;;;;3.80;3.47;;;;;;;22.34;81.01;101613.00;5072901;28;20036;-35
2022/08/25 00:18:44;;;;;;;4.53;3.58;;;;;;;22.40;81.45;101622.03;5073113;28;20123;-35
2022/08/25 00:21:10;;;;;;;3.53;3.22;;;;;;;22.42;81.13;101619.81;5072789;28;20029;-35
2022/08/25 00:23:35;;;;;;;4.15;3.05;;;;;;;22.41;80.61;101624.50;5072580;28;20532;-35
2022/08/25 00:26:01;;;;;;;3.67;3.38;;;;;;;22.31;81.14;101611.66;5073150;28;20112;-35
2022/08/25 00:28:28;;;;;;;4.38;3.47;;;;;;;22.33;81.02;101619.63;5072763;28;20025;-35
2022/08/25 00:30:53;;;;;;;4.50;3.40;;;;;;;22.24;81.49;101613.94;5072682;28;20055;-35
2022/08/25 00:33:18;;;;;;;4.05;3.35;;;;;;;22.22;81.47;101613.41;5072699;28;20028;-35
2022/08/25 00:35:44;;;;;;;4.75;3.63;;;;;;;22.29;81.32;101619.38;5072319;28;20082;-35
2022/08/25 00:38:10;;;;;;;4.90;3.42;;;;;;;22.14;81.89;101622.28;5072374;28;20078;-35
2022/08/25 00:40:38;;;;;;;4.47;3.67;;;;;;;22.04;82.10;101619.59;5072068;28;20352;-35
2022/08/25 00:43:06;;;;;;;6.00;3.42;;;;;;;22.06;82.19;101622.91;5072350;28;20464;-35
2022/08/25 00:45:33;;;;;;;3.97;3.58;;;;;;;22.01;82.35;101622.91;5073121;28;20024;-35
2022/08/25 00:47:59;;;;;;;5.43;3.40;;;;;;;22.01;82.10;101612.75;5075720;28;20062;-35
2022/08/25 00:50:24;;;;;;;6.75;3.70;;;;;;;21.93;82.30;101618.88;5076011;28;20112;-35
2022/08/25 00:52:54;;;;;;;3.95;3.55;;;;;;;21.83;83.13;101613.47;5076246;28;20036;-35
2022/08/25 00:55:28;;;;;;;5.50;3.35;;;;;;;21.90;82.81;101613.94;5076785;28;20036;-35
2022/08/25 00:58:02;;;;;;;4.35;3.28;;;;;;;21.90;82.49;101618.63;5076234;28;20142;-35
2022/08/25 01:00:32;;;;;;;7.18;3.75;;;;;;;21.93;82.30;101620.81;5076747;28;20067;-35
2022/08/25 01:02:58;;;;;;;4.10;3.70;;;;;;;21.79;82.78;101621.47;5076089;28;20171;-35
2022/08/25 01:05:24;;;;;;;4.97;3.70;;;;;;;21.71;82.73;101611.06;5076047;28;20079;-34
2022/08/25 01:07:51;;;;;;;4.47;3.78;;;;;;;21.76;82.37;101616.53;5075686;28;20035;-34
2022/08/25 01:10:18;;;;;;;5.53;4.10;;;;;;;21.62;82.28;101601.81;5076489;28;20036;-34
2022/08/25 01:12:44;;;;;;;7.90;4.38;;;;;;;21.60;81.63;101606.75;5075819;28;20024;-34
2022/08/25 01:15:12;;;;;;;6.60;3.95;;;;;;;21.55;82.64;101602.09;5076165;28;20051;-34
2022/08/25 01:17:53;;;;;;;5.22;4.07;;;;;;;21.56;82.71;101613.94;5076287;28;20055;-34
2022/08/25 01:20:21;;;;;;;4.72;3.47;;;;;;;21.51;81.86;101597.47;5075694;28;20029;-34
2022/08/25 01:22:47;;;;;;;5.10;3.67;;;;;;;21.48;79.84;101587.84;5075789;28;20043;-35
2022/08/25 01:25:28;;;;;;;4.68;3.97;;;;;;;21.55;81.14;101610.34;5075660;28;20097;-34
2022/08/25 01:27:54;;;;;;;4.40;4.00;;;;;;;21.49;80.80;101603.25;5075858;28;20449;-34
2022/08/25 01:30:20;;;;;;;5.05;4.22;;;;;;;21.42;81.70;101607.41;5075512;28;20498;-35
2022/08/25 01:32:46;;;;;;;5.40;3.80;;;;;;;21.59;80.83;101610.63;5075721;28;20107;-35
2022/08/25 01:35:11;;;;;;;5.88;4.20;;;;;;;21.46;80.72;101620.31;5075660;28;20082;-35
2022/08/25 01:37:36;;;;;;;4.68;4.13;;;;;;;21.47;80.61;101616.50;5075405;28;20033;-35
2022/08/25 01:40:03;;;;;;;7.25;4.15;;;;;;;21.42;80.15;101621.19;5075661;28;20028;-34
2022/08/25 01:42:37;;;;;;;5.60;4.25;;;;;;;21.34;80.79;101611.63;5074302;28;20047;-35
2022/08/25 01:45:03;;;;;;;5.07;4.22;;;;;;;21.27;79.71;101600.06;5076062;28;20028;-35
2022/08/25 01:47:28;;;;;;;7.20;4.55;;;;;;;21.24;80.55;101601.47;5075300;28;20082;-34
2022/08/25 01:49:53;;;;;;;7.60;4.22;;;;;;;21.34;79.52;101617.94;5075328;28;20036;-35
2022/08/25 01:52:35;;;;;;;4.82;4.32;;;;;;;21.29;79.93;101614.38;5075108;28;20107;-35
2022/08/25 01:55:01;;;;;;;6.63;4.90;;;;;;;21.33;77.21;101612.72;5074310;28;20051;-35
2022/08/25 01:57:30;;;;;;;8.38;4.68;;;;;;;21.32;78.20;101611.06;5074965;28;20468;-35
2022/08/25 01:59:56;;;;;;;6.75;4.60;;;;;;;21.34;78.11;101614.38;5074673;28;20051;-35
2022/08/25 02:02:22;;;;;;;8.40;4.93;;;;;;;21.27;77.05;101609.13;5075732;28;20028;-34
2022/08/25 02:04:47;;;;;;;6.95;5.18;;;;;;;21.28;76.26;101610.78;5074646;28;20526;-34
2022/08/25 02:07:12;;;;;;;6.28;4.88;;;;;;;21.36;76.68;101614.88;5074866;28;20024;-35
2022/08/25 02:09:38;;;;;;;6.50;5.05;;;;;;;21.30;74.48;101602.25;5074894;28;20469;-35
2022/08/25 02:12:03;;;;;;;8.65;4.97;;;;;;;21.24;75.95;101612.47;5075285;28;20032;-34
2022/08/25 02:14:29;;;;;;;9.93;5.05;;;;;;;21.30;75.20;101611.34;5074728;28;20025;-35
2022/08/25 02:16:55;;;;;;;8.57;4.95;;;;;;;21.29;74.80;101606.94;5074706;28;20043;-35
2022/08/25 02:19:23;;;;;;;6.32;4.88;;;;;;;21.23;74.38;101599.81;5075091;28;20032;-35
2022/08/25 02:21:49;;;;;;;6.88;4.95;;;;;;;21.28;73.66;101612.72;5074878;28;20066;-35
2022/08/25 02:24:15;;;;;;;8.70;5.10;;;;;;;21.23;72.99;101610.81;5074584;28;20035;-35
2022/08/25 02:26:41;;;;;;;7.15;4.55;;;;;;;21.22;74.08;101609.16;5074249;28;20591;-34
2022/08/25 02:29:07;;;;;;;5.32;4.82;;;;;;;21.15;74.55;101603.16;5074190;28;20088;-35
2022/08/25 02:31:33;;;;;;;8.27;4.75;;;;;;;21.21;73.13;101612.19;5074905;28;20033;-35
2022/08/25 02:34:00;;;;;;;6.28;4.72;;;;;;;21.04;73.72;101585.91;5074565;28;20360;-34
2022/08/25 02:36:26;;;;;;;6.68;4.38;;;;;;;21.13;73.40;101588.88;5074231;28;20085;-35
2022/08/25 02:38:51;;;;;;;7.43;4.47;;;;;;;21.18;73.56;101599.00;5073919;28;20450;-35
2022/08/25 02:41:23;;;;;;;8.18;4.50;;;;;;;21.09;73.43;101596.88;5074397;28;20024;-34
2022/08/25 02:43:49;;;;;;;6.13;4.38;;;;;;;21.08;73.08;101583.38;5073848;28;20028;-35
2022/08/25 02:46:18;;;;;;;6.25;4.40;;;;;;;21.13;73.33;101604.53;5074159;28;20032;-34
2022/08/25 02:48:44;;;;;;;7.30;4.80;;;;;;;21.13;72.81;101597.13;5074407;28;20055;-35
2022/08/25 02:51:11;;;;;;;9.25;4.50;;;;;;;21.02;73.25;101592.78;5073985;28;20409;-35
2022/08/25 02:53:40;;;;;;;8.30;4.20;;;;;;;20.98;73.43;101591.69;5074121;28;20345;-35
2022/08/25 02:56:08;;;;;;;6.03;4.68;;;;;;;20.90;72.84;101586.81;5074702;28;20032;-35
2022/08/25 02:58:34;;;;;;;5.25;4.03;;;;;;;21.00;73.52;101589.50;5073874;28;20366;-35
2022/08/25 03:01:00;;;;;;;5.60;4.63;;;;;;;20.95;72.86;101592.28;5074798;28;20127;-35
2022/08/25 03:03:25;;;;;;;6.20;4.85;;;;;;;20.96;72.95;101581.00;5072378;28;20111;-35
2022/08/25 03:05:51;;;;;;;8.00;5.03;;;;;;;20.90;73.07;101582.13;5073745;28;20399;-34
2022/08/25 03:08:16;;;;;;;7.90;5.38;;;;;;;20.90;72.21;101589.56;5073392;28;20021;-34
2022/08/25 03:10:42;;;;;;;11.55;5.03;;;;;;;20.82;72.35;101586.28;5105499;28;20388;-34
2022/08/25 03:13:07;;;;;;;7.30;5.13;;;;;;;20.79;73.31;101589.59;5073837;28;20024;-35
2022/08/25 03:15:36;;;;;;;5.43;4.65;;;;;;;20.77;73.23;101578.06;5073811;28;20373;-35
2022/08/25 03:18:02;;;;;;;7.80;5.30;;;;;;;20.80;72.89;101580.25;5073428;28;20027;-35
2022/08/25 03:20:28;;;;;;;7.38;5.60;;;;;;;20.71;72.53;101576.44;5073163;28;20032;-35
2022/08/25 03:22:53;;;;;;;7.05;5.50;;;;;;;20.69;72.63;101578.66;5074007;28;20047;-35
2022/08/25 03:28:05;;;;;;;7.13;4.80;;;;;;;20.72;72.39;101577.25;5072388;28;20047;-35
2022/08/25 03:30:31;;;;;;;6.97;5.35;;;;;;;20.60;73.40;101569.34;5073732;28;20090;-35
2022/08/25 03:32:56;;;;;;;7.07;5.30;;;;;;;20.57;72.52;101556.16;5073515;28;20028;-35
2022/08/25 03:35:22;;;;;;;10.10;5.60;;;;;;;20.58;72.95;101564.13;5073752;28;20039;-35
2022/08/25 03:37:48;;;;;;;10.95;5.90;;;;;;;20.59;72.15;101562.19;5072857;28;20056;-35
2022/08/25 03:40:16;;;;;;;8.77;5.53;;;;;;;20.57;73.25;101569.91;5073441;28;20119;-35
2022/08/25 03:42:43;;;;;;;10.13;5.18;;;;;;;20.64;72.24;101564.09;5072955;28;20021;-35
2022/08/25 03:45:12;;;;;;;7.13;5.50;;;;;;;20.59;72.67;101562.19;5073039;28;20465;-35
2022/08/25 03:47:39;;;;;;;8.77;5.60;;;;;;;20.50;72.14;101572.94;5073185;28;20021;-35
2022/08/25 03:50:07;;;;;;;5.60;4.60;;;;;;;20.46;73.71;101558.09;5073184;28;20032;-35
2022/08/25 03:52:33;;;;;;;8.38;5.55;;;;;;;20.55;72.76;101561.13;5073136;28;20443;-35
2022/08/25 03:54:59;;;;;;;9.30;5.22;;;;;;;20.44;72.78;101570.44;5072861;28;20033;-35
2022/08/25 03:57:24;;;;;;;8.20;5.25;;;;;;;20.46;71.95;101565.53;5073122;28;20066;-35
2022/08/25 03:59:51;;;;;;;7.20;5.28;;;;;;;20.46;72.85;101554.53;5073242;28;20097;-35
2022/08/25 04:02:17;;;;;;;8.32;4.70;;;;;;;20.37;72.24;101553.47;5072938;28;20032;-35
2022/08/25 04:04:42;;;;;;;7.10;5.47;;;;;;;20.30;73.58;101554.59;5073736;28;20104;-35
2022/08/25 04:07:07;;;;;;;5.90;5.18;;;;;;;20.33;73.39;101553.19;5072968;28;20457;-35
2022/08/25 04:09:33;;;;;;;9.98;5.35;;;;;;;20.28;72.98;101548.53;5072643;28;20040;-35
2022/08/25 04:11:58;;;;;;;9.02;5.40;;;;;;;20.21;72.76;101547.19;5073716;28;20061;-35
2022/08/25 04:14:23;;;;;;;7.30;4.97;;;;;;;20.30;72.70;101543.59;5073036;28;20097;-35
2022/08/25 04:16:50;;;;;;;5.93;5.03;;;;;;;20.13;72.15;101529.34;5072936;28;20021;-35
2022/08/25 04:19:15;;;;;;;7.57;4.88;;;;;;;20.17;72.92;101544.16;5072821;28;20021;-35
2022/08/25 04:21:41;;;;;;;5.65;5.13;;;;;;;20.16;73.35;101539.78;5073734;28;20040;-35
2022/08/25 04:24:08;;;;;;;9.65;5.00;;;;;;;20.16;73.01;101549.94;5077095;28;20066;-35
2022/08/25 04:26:37;;;;;;;7.43;5.32;;;;;;;20.14;72.07;101549.38;5077531;28;20074;-35
2022/08/25 04:29:05;;;;;;;5.57;4.88;;;;;;;20.15;71.82;101542.78;5076998;28;20445;-34
2022/08/25 04:31:31;;;;;;;7.70;4.63;;;;;;;20.19;72.13;101546.63;5077484;28;20377;-34
2022/08/25 04:33:57;;;;;;;8.32;4.68;;;;;;;20.08;72.95;101551.31;5076849;28;20024;-35
2022/08/25 04:36:23;;;;;;;6.43;4.75;;;;;;;20.06;72.05;101532.41;5076851;28;20384;-35
2022/08/25 04:38:49;;;;;;;8.48;4.60;;;;;;;20.08;72.19;101540.34;5076488;28;20028;-35
2022/08/25 04:41:18;;;;;;;8.32;5.07;;;;;;;19.96;71.57;101526.94;5076094;28;20094;-35
2022/08/25 04:43:44;;;;;;;6.25;4.78;;;;;;;20.07;71.96;101538.69;5076116;28;20101;-35
2022/08/25 04:46:24;;;;;;;9.15;4.53;;;;;;;19.94;71.54;101529.09;5076552;28;20021;-35
2022/08/25 04:48:51;;;;;;;9.50;5.28;;;;;;;19.93;71.79;101526.66;5076031;28;20039;-35
2022/08/25 04:51:22;;;;;;;6.38;4.38;;;;;;;19.96;71.89;101521.44;5076202;28;20354;-35
2022/08/25 04:53:48;;;;;;;5.78;3.80;;;;;;;20.05;72.58;101532.66;5076276;28;20065;-35
2022/08/25 04:58:26;;;;;;;6.87;4.37;;;;;;;20.00;71.40;101532.66;5105165;27;1423148;-34
2022/08/25 05:00:51;;;;;;;7.32;4.75;;;;;;;19.97;71.31;101525.00;5131536;27;20364;-35
2022/08/25 05:03:17;;;;;;;7.75;4.40;;;;;;;20.01;71.55;101520.59;5131424;27;20131;-35
2022/08/25 05:05:42;;;;;;;9.65;4.88;;;;;;;20.00;70.68;101525.25;5131275;27;20073;-35
2022/08/25 05:08:08;;;;;;;8.25;4.22;;;;;;;19.96;69.33;101528.81;5131702;28;20027;-34
2022/08/25 05:10:38;;;;;;;6.63;4.57;;;;;;;19.94;70.38;101531.03;5131379;27;20059;-35
2022/08/25 05:13:04;;;;;;;8.13;4.57;;;;;;;19.99;71.04;101542.81;5131300;27;20053;-35
2022/08/25 05:18:13;;;;;;;9.80;5.07;;;;;;;19.89;70.03;101536.53;5131346;28;20061;-35
2022/08/25 05:20:38;;;;;;;8.05;4.90;;;;;;;19.95;69.84;101535.41;5130787;28;20370;-35
2022/08/25 05:23:04;;;;;;;6.97;4.60;;;;;;;19.99;70.26;101552.97;5131490;27;20035;-35
2022/08/25 05:25:29;;;;;;;4.88;4.40;;;;;;;20.13;69.49;101553.25;5131123;27;20028;-35
2022/08/25 05:27:55;;;;;;;7.05;4.45;;;;;;;20.15;68.68;101562.81;5131598;27;20043;-35
2022/08/25 05:30:20;;;;;;;6.28;4.22;;;;;;;20.14;68.45;101569.44;5131450;27;20046;-35
2022/08/25 05:32:46;;;;;;;8.77;4.20;;;;;;;20.23;68.82;101570.50;5131316;27;20027;-35
2022/08/25 05:35:11;;;;;;;11.05;4.78;;;;;;;20.26;67.57;101550.75;5130910;27;20458;-35
2022/08/25 05:37:37;;;;;;;8.32;5.10;;;;;;;20.32;68.11;101563.34;5131297;27;20442;-34
2022/08/25 05:40:05;;;;;;;8.23;5.13;;;;;;;20.41;68.46;101569.09;5129155;28;20024;-34
2022/08/25 05:42:30;;;;;;;7.72;4.45;;;;;;;20.40;66.94;101561.13;5131528;27;20039;-34
2022/08/25 05:44:55;;;;;;;10.15;5.15;;;;;;;20.55;68.17;101561.13;5131132;28;20468;-34
2022/08/25 05:47:21;;;;;;;7.68;4.68;;;;;;;20.52;67.44;101550.69;5131185;27;20023;-35
2022/08/25 05:49:46;;;;;;;9.27;4.68;;;;;;;20.60;66.84;101563.03;5130763;28;20042;-34
2022/08/25 05:52:11;;;;;;;7.57;4.80;;;;;;;20.64;67.67;101553.91;5131355;27;20027;-34
2022/08/25 05:54:38;;;;;;;7.50;4.50;;;;;;;20.76;67.48;101573.66;5130552;27;20035;-35
2022/08/25 05:57:05;;;;;;;10.77;4.45;;;;;;;20.73;66.38;101570.66;5130233;27;20055;-35
2022/08/25 05:59:30;;;;;;;6.70;4.53;;;;;;;20.79;67.44;101573.13;5130389;27;20054;-35
2022/08/25 06:04:39;;;;;;;6.03;4.07;;;;;;;20.78;66.66;101576.13;5130288;28;20120;-35
2022/08/25 06:07:04;;;;;;;7.45;4.72;;;;;;;20.74;66.51;101575.88;5130929;27;20054;-35
2022/08/25 06:09:30;;;;;;;6.35;4.10;;;;;;;20.86;66.57;101571.97;5116940;28;20035;-34
2022/08/25 06:11:55;;;;;;;5.82;3.85;;;;;;;20.97;66.00;101568.06;5117242;28;20408;-35
2022/08/25 06:14:22;;;;;;;7.57;4.30;;;;;;;21.11;65.60;101574.59;5116127;28;20071;-35
2022/08/25 06:16:50;;;;;;;7.93;4.40;;;;;;;21.11;65.16;101577.34;5116320;28;20033;-35
2022/08/25 06:19:15;;;;;;;6.57;4.55;;;;;;;21.26;63.93;101571.72;5116584;28;20412;-35
2022/08/25 06:21:41;;;;;;;7.38;4.63;;;;;;;21.32;62.47;101570.63;5116870;28;20046;-36
2022/08/25 06:24:08;;;;;;;8.23;4.53;;;;;;;21.43;62.32;101567.81;5116216;28;20028;-36
2022/08/25 06:26:34;;;;;;;6.78;3.70;;;;;;;21.49;62.66;101566.66;5116515;28;20042;-36
2022/08/25 06:28:59;;;;;;;10.02;4.10;;;;;;;21.52;63.19;101568.81;5116090;28;20460;-36
2022/08/25 06:31:24;;;;;;;6.85;3.78;;;;;;;21.60;61.30;101568.22;5116459;28;20031;-36
2022/08/25 06:33:50;;;;;;;7.53;3.47;;;;;;;21.53;60.59;101551.22;5116695;28;20023;-35
2022/08/25 06:36:15;;;;;;;6.80;3.95;;;;;;;21.69;62.06;101565.69;5116145;28;20031;-35
2022/08/25 06:38:41;;;;;;;5.13;3.53;;;;;;;21.77;60.40;101576.91;5115912;28;20386;-35
2022/08/25 06:41:09;;;;;;;7.57;3.97;;;;;;;21.87;60.03;101575.16;5115899;28;20124;-35
2022/08/25 06:43:35;;;;;;;8.38;3.72;;;;;;;21.88;59.96;101585.88;5115829;27;20088;-35
2022/08/25 06:46:08;;;;;;;5.68;3.78;;;;;;;21.93;60.76;101574.00;5115612;28;20132;-35
2022/08/25 06:48:34;;;;;;;6.38;3.72;;;;;;;22.01;60.35;101578.88;5114566;28;20027;-35
2022/08/25 06:50:59;;;;;;;7.78;3.92;;;;;;;22.06;60.24;101570.59;5116243;28;20037;-35
2022/08/25 06:53:24;;;;;;;6.30;3.65;;;;;;;22.14;60.30;101575.47;5116033;28;20108;-35
2022/08/25 06:55:56;;;;;;;8.25;4.00;;;;;;;22.14;61.27;101556.19;5116088;28;20038;-35
2022/08/25 06:58:22;;;;;;;7.40;4.13;;;;;;;22.28;59.55;101576.41;5115511;28;20056;-34
2022/08/25 07:00:48;;;;;;;6.45;3.10;;;;;;;22.32;60.03;101566.47;5115613;28;20053;-35
2022/08/25 07:03:13;;;;;;;6.03;3.70;;;;;;;22.28;59.07;101548.88;5116048;28;20062;-35
2022/08/25 07:05:39;;;;;;;8.18;3.60;;;;;;;22.40;58.14;101562.25;5115682;28;20023;-35
2022/08/25 07:08:04;;;;;;;6.60;3.72;;;;;;;22.39;58.28;101552.31;5115187;28;20058;-35
2022/08/25 07:10:29;;;;;;;6.60;3.25;;;;;;;22.52;58.66;101564.59;5115358;28;20096;-35
2022/08/25 07:12:55;;;;;;;7.22;3.33;;;;;;;22.50;59.00;101555.81;5115354;28;20063;-35
2022/08/25 07:15:20;;;;;;;6.57;3.50;;;;;;;22.65;58.57;101554.78;5114956;28;20130;-35
2022/08/25 07:17:46;;;;;;;7.10;2.92;;;;;;;22.67;57.88;101545.09;5115713;27;20030;-35
2022/08/25 07:20:12;;;;;;;5.70;3.05;;;;;;;22.72;56.98;101541.47;5114880;28;20038;-35
2022/08/25 07:22:37;;;;;;;6.80;3.00;;;;;;;22.88;57.29;101553.91;5115897;28;20096;-35
2022/08/25 07:25:03;;;;;;;7.18;3.67;;;;;;;22.89;57.03;101541.81;5115535;28;20024;-35
2022/08/25 07:27:28;;;;;;;9.75;3.00;;;;;;;23.07;57.03;101554.78;5115409;28;20038;-35
2022/08/25 07:29:56;;;;;;;6.43;2.88;;;;;;;23.12;57.70;101556.66;5114958;28;20028;-35
2022/08/25 07:32:21;;;;;;;8.45;2.90;;;;;;;23.21;57.41;101554.03;5114909;28;20028;-35
2022/08/25 07:37:31;;;;;;;3.75;2.22;;;;;;;23.32;57.73;101542.53;5114495;28;20042;-35
2022/08/25 07:39:58;;;;;;;5.13;2.40;;;;;;;23.46;57.37;101555.59;5115097;28;20031;-35
2022/08/25 07:42:26;;;;;;;4.28;2.50;;;;;;;23.49;55.91;101552.22;5115460;28;20038;-35
2022/08/25 07:44:51;;;;;;;5.43;2.45;;;;;;;23.51;56.40;101545.28;5114245;28;20035;-36
2022/08/25 07:47:17;;;;;;;9.45;2.50;;;;;;;23.53;55.70;101542.22;5114499;28;20028;-35
2022/08/25 07:49:42;;;;;;;9.60;2.65;;;;;;;23.59;56.02;101539.06;5114662;28;20081;-35
2022/08/25 07:52:08;;;;;;;6.72;2.42;;;;;;;23.74;55.77;101551.81;5114720;28;20122;-35
2022/08/25 07:54:34;;;;;;;7.10;2.17;;;;;;;23.76;57.01;101546.81;5114961;28;20035;-35
2022/08/25 07:57:01;;;;;;;4.28;2.13;;;;;;;23.85;54.90;101542.22;5114733;28;20071;-35
2022/08/25 07:59:26;;;;;;;8.75;2.60;;;;;;;23.97;54.37;101543.72;5114587;28;20050;-35
2022/08/25 08:01:51;;;;;;;7.43;2.30;;;;;;;24.12;54.28;101537.91;5114015;28;20028;-35
2022/08/25 08:04:17;;;;;;;4.75;2.08;;;;;;;24.19;54.99;101540.25;5114315;28;20030;-35
2022/08/25 08:06:42;;;;;;;4.20;2.00;;;;;;;24.29;54.35;101540.84;5114003;27;20124;-35
2022/08/25 08:09:08;;;;;;;5.40;2.33;;;;;;;24.43;54.27;101538.13;5114438;28;20031;-35
2022/08/25 08:11:39;;;;;;;9.02;2.35;;;;;;;24.40;53.82;101523.00;5114912;28;20030;-35
2022/08/25 08:14:05;;;;;;;7.72;2.13;;;;;;;24.42;53.26;101519.09;5114116;28;20019;-35
2022/08/25 08:16:31;;;;;;;4.53;2.55;;;;;;;24.58;53.65;101537.00;5113906;28;20152;-35
2022/08/25 08:18:58;;;;;;;6.93;2.10;;;;;;;24.75;52.28;101528.06;5113969;27;20394;-35
2022/08/25 08:21:27;;;;;;;7.30;2.30;;;;;;;24.84;52.77;101529.78;5114182;28;20024;-34
2022/08/25 08:23:54;;;;;;;6.30;1.80;;;;;;;24.95;53.67;101524.03;5113559;28;20051;-34
2022/08/25 08:26:20;;;;;;;5.50;2.10;;;;;;;25.06;53.31;101519.88;5113652;28;20061;-34
2022/08/25 08:28:45;;;;;;;6.05;1.88;;;;;;;25.19;52.92;101524.59;5114221;28;20108;-34
2022/08/25 08:31:11;;;;;;;3.92;2.10;;;;;;;25.28;52.77;101528.25;5113965;28;20027;-35
2022/08/25 08:33:36;;;;;;;9.60;1.80;;;;;;;25.35;53.17;101533.34;5113996;28;20028;-35
2022/08/25 08:36:07;;;;;;;8.80;2.00;;;;;;;25.41;53.83;101527.34;5113532;28;20035;-35
2022/08/25 08:38:35;;;;;;;5.00;2.30;;;;;;;25.54;52.60;101516.53;5114358;28;20372;-35
2022/08/25 08:44:40;;;;;;;4.32;2.00;;;;;;;25.66;51.82;101509.28;5031370;28;20115;-35
2022/08/25 08:47:13;;;;;;;7.60;2.10;;;;;;;25.93;51.15;101515.81;5030924;28;20084;-35
2022/08/25 08:49:53;;;;;;;8.00;2.58;;;;;;;26.07;51.00;101519.31;5031219;28;20029;-35
2022/08/25 08:52:31;;;;;;;5.90;2.00;;;;;;;26.16;51.11;101519.34;5030720;28;20031;-35
2022/08/25 08:55:02;;;;;;;8.20;2.45;;;;;;;26.32;48.05;101519.72;5030852;28;20492;-35
2022/08/25 08:57:30;;;;;;;5.35;2.20;;;;;;;26.33;48.57;101511.06;5030518;28;20088;-36
2022/08/25 09:00:01;;;;;;;6.95;2.13;;;;;;;26.44;48.94;101517.97;5030931;28;20038;-36
2022/08/25 09:02:44;;;;;;;6.10;2.13;;;;;;;26.63;47.15;101519.66;5031048;28;20029;-34
2022/08/25 09:05:15;;;;;;;8.30;1.88;;;;;;;26.69;47.94;101521.13;5031220;28;20057;-34
2022/08/25 09:07:47;;;;;;;9.60;2.47;;;;;;;26.75;47.27;101519.88;5031285;28;20041;-36
2022/08/25 09:10:14;;;;;;;5.43;1.90;;;;;;;26.87;46.69;101508.94;5031156;28;20120;-34
2022/08/25 09:12:43;;;;;;;6.55;1.60;;;;;;;27.05;47.27;101518.09;5030706;28;20041;-35
2022/08/25 09:18:30;;;;;;;6.78;1.83;;;;;;;27.28;47.36;101515.16;5030647;28;20076;-35
2022/08/25 09:21:19;;;;;;;3.72;1.95;;;;;;;27.39;47.34;101520.06;5113379;28;20032;-35
2022/08/25 09:24:09;;;;;;;3.95;1.80;;;;;;;27.51;46.93;101518.56;5113059;28;20032;-35
2022/08/25 09:27:16;;;;;;;4.63;1.77;;;;;;;27.69;46.34;101509.06;5114123;28;20081;-36
2022/08/25 09:29:59;;;;;;;9.68;2.40;;;;;;;27.80;45.18;101515.91;5050484;28;20044;-36
2022/08/25 09:32:26;;;;;;;10.77;2.10;;;;;;;27.93;43.43;101512.13;5050394;28;20029;-36
2022/08/25 09:34:53;;;;;;;7.03;2.10;;;;;;;28.03;44.45;101510.13;5050800;28;20029;-36
2022/08/25 09:37:21;;;;;;;4.07;2.10;;;;;;;28.11;43.93;101501.75;5050218;28;20021;-36
2022/08/25 09:39:46;;;;;;;6.90;2.17;;;;;;;28.34;43.76;101507.84;5050806;28;20098;-36
2022/08/25 09:42:12;;;;;;;6.47;1.70;;;;;;;28.43;42.52;101500.28;5050852;28;20432;-36
2022/08/25 09:44:42;;;;;;;6.57;2.25;;;;;;;28.53;43.05;101501.06;5053708;28;20120;-36
2022/08/25 09:47:16;;;;;;;5.75;1.70;;;;;;;28.70;43.10;101498.97;5054680;28;20045;-36
2022/08/25 09:49:49;;;;;;;3.97;2.28;;;;;;;28.77;42.11;101492.03;5053952;28;20487;-36
2022/08/25 09:52:30;;;;;;;5.57;1.90;;;;;;;28.81;42.64;101496.59;5054407;28;20028;-36
2022/08/25 09:55:00;;;;;;;5.30;2.05;;;;;;;28.90;43.20;101479.84;5054076;28;20057;-36
2022/08/25 09:57:30;;;;;;;4.35;1.90;;;;;;;29.20;43.43;101492.53;5054333;28;20088;-36
2022/08/25 09:59:55;;;;;;;4.78;2.17;;;;;;;29.37;41.46;101491.53;5054123;28;20228;-36
2022/08/25 10:02:25;;;;;;;6.57;2.08;;;;;;;29.46;39.90;101489.47;5053894;28;20516;-36
2022/08/25 10:04:51;;;;;;;3.45;1.90;;;;;;;29.42;38.97;101477.38;5053676;28;20241;-36
2022/08/25 10:07:26;;;;;;;4.32;1.83;;;;;;;29.30;38.94;101466.22;5106970;28;20051;-36
2022/08/25 10:09:58;;;;;;;5.90;1.80;;;;;;;29.42;40.51;101480.19;5116930;28;20374;-34
2022/08/25 10:12:39;;;;;;;7.32;1.80;;;;;;;29.41;39.32;101472.97;5116741;27;20031;-33
2022/08/25 10:15:32;;;;;;;2.90;1.77;;;;;;;29.47;38.93;101471.59;5116926;28;20375;-34
2022/08/25 10:18:23;;;;;;;5.75;1.77;;;;;;;29.55;37.98;101466.31;5116473;28;20139;-35
2022/08/25 10:21:07;;;;;;;6.68;1.80;;;;;;;29.61;37.82;101462.16;5116301;28;20073;-35
2022/08/25 10:23:36;;;;;;;5.95;1.95;;;;;;;29.75;39.96;101457.06;5116328;28;20034;-35
2022/08/25 10:26:21;;;;;;;5.45;1.73;;;;;;;29.84;38.74;101462.53;5116419;28;20073;-35
2022/08/25 10:29:05;;;;;;;4.50;1.50;;;;;;;29.97;38.57;101456.63;5117041;28;20125;-35
2022/08/25 10:31:58;;;;;;;7.47;1.80;;;;;;;30.18;37.76;101438.97;5116558;28;20080;-35
2022/08/25 10:34:41;;;;;;;6.30;1.75;;;;;;;30.28;39.25;101435.72;5107077;28;20186;-35
2022/08/25 10:37:12;;;;;;;9.02;1.98;;;;;;;30.43;39.78;101437.78;5116059;28;20100;-35
2022/08/25 10:39:43;;;;;;;8.27;2.15;;;;;;;30.29;38.05;101434.53;5114636;28;20032;-35
2022/08/25 10:42:22;;;;;;;3.90;1.80;;;;;;;30.38;38.02;101428.84;5116110;28;20035;-35
2022/08/25 10:48:17;;;;;;;4.45;2.13;;;;;;;30.63;37.15;101427.59;5116275;28;20042;-35
2022/08/25 10:50:55;;;;;;;5.38;1.60;;;;;;;30.83;36.48;101420.25;5115785;28;20028;-35
2022/08/25 10:53:38;;;;;;;5.35;1.60;;;;;;;30.81;36.86;101419.78;5116002;27;20028;-36
2022/08/25 10:56:11;;;;;;;4.95;1.90;;;;;;;30.83;35.83;101419.44;5115760;28;20028;-35
2022/08/25 10:58:39;;;;;;;5.28;2.17;;;;;;;30.53;37.57;101406.59;5116603;28;20071;-35
2022/08/25 11:01:10;;;;;;;9.00;2.00;;;;;;;30.32;37.24;101414.31;5115796;28;20036;-36
2022/08/25 11:03:54;;;;;;;7.57;2.03;;;;;;;30.34;37.56;101403.63;5115571;28;20031;-35
2022/08/25 11:06:44;;;;;;;5.28;1.73;;;;;;;30.32;36.75;101408.75;5115232;28;20020;-35
2022/08/25 11:09:15;;;;;;;4.80;2.00;;;;;;;30.21;36.57;101405.63;5115610;28;20107;-36
2022/08/25 11:12:11;;;;;;;6.03;1.88;;;;;;;30.24;36.54;101404.09;5115244;28;20028;-35
2022/08/25 11:14:45;;;;;;;4.75;2.00;;;;;;;30.08;36.27;101408.75;5115818;28;20055;-35
2022/08/25 11:17:24;;;;;;;6.35;1.85;;;;;;;30.07;37.51;101398.75;5115418;28;20024;-35
2022/08/25 11:20:02;;;;;;;4.43;1.90;;;;;;;30.11;36.80;101396.88;5115952;28;20030;-35
2022/08/25 11:22:27;;;;;;;7.90;2.17;;;;;;;30.18;36.63;101378.44;5115684;28;20061;-36
2022/08/25 11:25:10;;;;;;;6.32;1.77;;;;;;;30.35;37.27;101377.34;5115367;28;20045;-36
2022/08/25 11:27:54;;;;;;;7.40;2.28;;;;;;;30.48;38.52;101381.72;5115885;28;20062;-36
2022/08/25 11:30:19;;;;;;;5.03;1.90;;;;;;;30.70;38.92;101379.56;5114744;28;20408;-36
2022/08/25 11:32:50;;;;;;;5.15;2.17;;;;;;;30.75;36.62;101385.75;5114740;28;20092;-36
2022/08/25 11:35:24;;;;;;;3.78;1.98;;;;;;;30.84;34.66;101382.78;5114716;28;20119;-36
2022/08/25 11:38:03;;;;;;;6.07;1.95;;;;;;;30.87;34.70;101370.09;5114963;28;20054;-36
2022/08/25 11:40:43;;;;;;;4.50;1.65;;;;;;;31.03;32.10;101380.13;5115448;28;20023;-36
2022/08/25 11:43:44;;;;;;;6.40;1.85;;;;;;;31.19;33.25;101376.56;5114629;28;20031;-36
2022/08/25 11:46:12;;;;;;;2.55;1.40;;;;;;;31.46;34.56;101375.69;5031537;28;20041;-35
2022/08/25 11:49:12;;;;;;;4.03;1.75;;;;;;;31.62;33.98;101374.88;5031971;28;20045;-36
2022/08/25 11:51:46;;;;;;;3.30;1.58;;;;;;;31.75;33.83;101368.00;5015124;28;20124;-35
2022/08/25 11:54:35;;;;;;;4.80;2.25;;;;;;;31.86;33.99;101371.91;5032114;28;20033;-36
2022/08/25 11:57:25;;;;;;;4.53;1.50;;;;;;;31.84;34.29;101377.06;5031657;28;20053;-36